createdAt,value
2022-11-19T08:10:01.549Z,452.00
2022-11-19T08:11:01.497Z,476.00
2022-11-19T08:12:01.479Z,520.00
2022-11-19T08:13:01.474Z,556.00
2022-11-19T08:14:01.459Z,620.00
2022-11-19T08:15:01.476Z,628.00
2022-11-19T08:16:01.435Z,592.00
2022-11-19T08:17:01.443Z,532.00
2022-11-19T08:18:01.433Z,456.00
2022-11-19T08:19:01.408Z,392.00
2022-11-19T08:20:01.423Z,356.00
2022-11-19T08:21:01.411Z,316.00
2022-11-19T08:22:01.380Z,308.00
2022-11-19T08:23:01.375Z,296.00
2022-11-19T08:24:01.373Z,300.00
2022-11-19T08:25:01.363Z,304.00
2022-11-19T08:26:01.347Z,320.00
2022-11-19T08:27:01.318Z,356.00
2022-11-19T08:28:01.301Z,416.00
2022-11-19T08:29:01.392Z,492.00
2022-11-19T08:30:01.307Z,588.00
2022-11-19T08:31:01.289Z,648.00
2022-11-19T08:32:01.255Z,684.00
2022-11-19T08:33:01.248Z,700.00
2022-11-19T08:34:01.268Z,724.00
2022-11-19T08:35:01.250Z,748.00
2022-11-19T08:36:01.214Z,768.00
2022-11-19T08:37:01.205Z,772.00
2022-11-19T08:38:01.202Z,764.00
2022-11-19T08:39:01.194Z,752.00
2022-11-19T08:40:01.196Z,752.00
2022-11-19T08:41:01.179Z,760.00
2022-11-19T08:42:01.173Z,780.00
2022-11-19T08:43:01.155Z,800.00
2022-11-19T08:44:01.139Z,844.00
2022-11-19T08:45:01.136Z,880.00
2022-11-19T08:46:01.101Z,916.00
2022-11-19T08:47:01.100Z,964.00
2022-11-19T08:48:01.076Z,1004.00
2022-11-19T08:49:01.084Z,1028.00
2022-11-19T08:50:01.097Z,1052.00
2022-11-19T08:51:01.047Z,1080.00
2022-11-19T08:52:01.052Z,1104.00
2022-11-19T08:53:01.041Z,1112.00
2022-11-19T08:54:01.022Z,1096.00
2022-11-19T08:55:01.018Z,1080.00
2022-11-19T08:56:00.986Z,1064.00
2022-11-19T08:57:00.999Z,1076.00
2022-11-19T08:58:00.992Z,1088.00
2022-11-19T08:59:03.014Z,1104.00
2022-11-19T09:00:05.939Z,1080.00
2022-11-19T09:01:02.014Z,1060.00
2022-11-19T09:02:00.916Z,1024.00
2022-11-19T09:03:00.912Z,952.00
2022-11-19T09:04:00.906Z,872.00
2022-11-19T09:05:00.917Z,780.00
2022-11-19T09:06:00.888Z,724.00
2022-11-19T09:07:00.983Z,688.00
2022-11-19T09:08:00.867Z,688.00
2022-11-19T09:09:00.842Z,696.00
2022-11-19T09:10:00.858Z,692.00
2022-11-19T09:11:00.833Z,720.00
2022-11-19T09:12:00.817Z,728.00
2022-11-19T09:13:00.811Z,720.00
2022-11-19T09:14:00.814Z,724.00
2022-11-19T09:15:00.805Z,704.00
2022-11-19T09:16:00.756Z,704.00
2022-11-19T09:17:00.750Z,668.00
2022-11-19T09:18:00.750Z,640.00
2022-11-19T09:19:00.740Z,628.00
2022-11-19T09:20:00.742Z,592.00
2022-11-19T09:21:00.719Z,568.00
2022-11-19T09:22:00.701Z,580.00
2022-11-19T09:23:00.686Z,560.00
2022-11-19T09:24:00.693Z,572.00
2022-11-19T09:25:00.680Z,632.00
2022-11-19T09:26:00.657Z,720.00
2022-11-19T09:27:02.405Z,800.00
2022-11-19T09:28:00.622Z,928.00
2022-11-19T09:29:00.661Z,1052.00
2022-11-19T09:30:00.639Z,1140.00
2022-11-19T09:31:00.621Z,1144.00
2022-11-19T09:32:00.582Z,1084.00
2022-11-19T09:33:00.587Z,1012.00
2022-11-19T09:34:00.567Z,968.00
2022-11-19T09:35:00.564Z,960.00
2022-11-19T09:36:00.600Z,964.00
2022-11-19T09:37:00.527Z,968.00
2022-11-19T09:38:00.528Z,1012.00
2022-11-19T09:39:00.504Z,1040.00
2022-11-19T09:40:00.488Z,1068.00
2022-11-19T09:41:00.508Z,1096.00
2022-11-19T09:42:00.479Z,1132.00
2022-11-19T09:43:00.461Z,1132.00
2022-11-19T09:44:00.457Z,1116.00
2022-11-19T09:45:00.435Z,1132.00
2022-11-19T09:46:00.468Z,1120.00
2022-11-19T09:47:00.428Z,1112.00
2022-11-19T09:48:00.410Z,1068.00
2022-11-19T09:49:00.410Z,1004.00
2022-11-19T09:50:00.387Z,980.00
2022-11-19T09:51:00.382Z,932.00
2022-11-19T09:52:00.354Z,852.00
2022-11-19T09:53:00.343Z,768.00
2022-11-19T09:54:00.340Z,708.00
2022-11-19T09:55:00.327Z,652.00
2022-11-19T09:56:00.326Z,632.00
2022-11-19T09:57:04.204Z,628.00
2022-11-19T09:58:00.296Z,628.00
2022-11-19T09:59:00.288Z,652.00
2022-11-19T10:00:00.279Z,664.00
2022-11-19T10:01:00.271Z,708.00
2022-11-19T10:02:00.272Z,752.00
2022-11-19T10:03:00.278Z,796.00
2022-11-19T10:04:00.216Z,832.00
2022-11-19T10:05:00.221Z,868.00
2022-11-19T10:06:00.206Z,868.00
2022-11-19T10:07:00.300Z,856.00
2022-11-19T10:08:00.171Z,824.00
2022-11-19T10:09:00.175Z,784.00
2022-11-19T10:10:00.163Z,740.00
2022-11-19T10:11:00.164Z,720.00
2022-11-19T10:12:00.129Z,720.00
2022-11-19T10:13:00.131Z,732.00
2022-11-19T10:14:00.103Z,740.00
2022-11-19T10:15:00.100Z,768.00
2022-11-19T10:16:00.116Z,776.00
2022-11-19T10:17:00.082Z,784.00
2022-11-19T10:18:00.095Z,776.00
2022-11-19T10:19:00.115Z,768.00
2022-11-19T10:20:00.040Z,756.00
2022-11-19T10:21:00.053Z,720.00
2022-11-19T10:22:00.016Z,692.00
2022-11-19T10:23:00.006Z,648.00
2022-11-19T10:24:00.001Z,612.00
2022-11-19T10:24:59.996Z,580.00
2022-11-19T10:25:59.984Z,564.00
2022-11-19T10:27:04.331Z,584.00
2022-11-19T10:28:00.957Z,644.00
2022-11-19T10:28:59.934Z,688.00
2022-11-19T10:29:59.924Z,708.00
2022-11-19T10:30:59.929Z,724.00
2022-11-19T10:31:59.897Z,724.00
2022-11-19T10:32:59.909Z,720.00
2022-11-19T10:33:59.926Z,712.00
2022-11-19T10:34:59.869Z,696.00
2022-11-19T10:35:59.868Z,696.00
2022-11-19T10:36:59.861Z,704.00
2022-11-19T10:37:59.837Z,712.00
2022-11-19T10:38:59.841Z,728.00
2022-11-19T10:39:59.824Z,768.00
2022-11-19T10:40:59.813Z,824.00
2022-11-19T10:41:59.798Z,880.00
2022-11-19T10:42:59.786Z,936.00
2022-11-19T10:43:59.775Z,960.00
2022-11-19T10:44:59.774Z,920.00
2022-11-19T10:45:59.777Z,856.00
2022-11-19T10:46:59.734Z,824.00
2022-11-19T10:48:03.308Z,804.00
2022-11-19T10:49:00.723Z,792.00
2022-11-19T10:49:59.732Z,788.00
2022-11-19T10:50:59.712Z,792.00
2022-11-19T10:51:59.690Z,828.00
2022-11-19T10:52:59.666Z,888.00
2022-11-19T10:53:59.650Z,940.00
2022-11-19T10:54:59.656Z,996.00
2022-11-19T10:55:59.660Z,1012.00
2022-11-19T10:56:59.632Z,988.00
2022-11-19T10:57:59.618Z,944.00
2022-11-19T10:58:59.617Z,932.00
2022-11-19T10:59:59.598Z,928.00
2022-11-19T11:00:59.646Z,916.00
2022-11-19T11:01:59.559Z,904.00
2022-11-19T11:02:59.579Z,912.00
2022-11-19T11:03:59.541Z,920.00
2022-11-19T11:04:59.550Z,912.00
2022-11-19T11:05:59.564Z,896.00
2022-11-19T11:06:59.603Z,888.00
2022-11-19T11:07:59.504Z,896.00
2022-11-19T11:08:59.500Z,868.00
2022-11-19T11:09:59.469Z,820.00
2022-11-19T11:10:59.563Z,792.00
2022-11-19T11:11:59.449Z,780.00
2022-11-19T11:12:59.465Z,748.00
2022-11-19T11:13:59.441Z,744.00
2022-11-19T11:14:59.439Z,788.00
2022-11-19T11:15:59.413Z,836.00
2022-11-19T11:16:59.426Z,880.00
2022-11-19T11:17:59.422Z,896.00
2022-11-19T11:18:59.368Z,884.00
2022-11-19T11:19:59.363Z,872.00
2022-11-19T11:20:59.371Z,876.00
2022-11-19T11:21:59.372Z,888.00
2022-11-19T11:22:59.340Z,876.00
2022-11-19T11:23:59.334Z,880.00
2022-11-19T11:25:04.110Z,896.00
2022-11-19T11:26:00.323Z,900.00
2022-11-19T11:26:59.282Z,908.00
2022-11-19T11:27:59.266Z,896.00
2022-11-19T11:28:59.282Z,896.00
2022-11-19T11:29:59.246Z,908.00
2022-11-19T11:30:59.249Z,936.00
2022-11-19T11:31:59.242Z,936.00
2022-11-19T11:32:59.213Z,928.00
2022-11-19T11:33:59.205Z,944.00
2022-11-19T11:35:03.483Z,960.00
2022-11-19T11:36:00.193Z,984.00
2022-11-19T11:36:59.193Z,1032.00
2022-11-19T11:37:59.176Z,1096.00
2022-11-19T11:38:59.158Z,1144.00
2022-11-19T11:39:59.144Z,1132.00
2022-11-19T11:41:20.678Z,1140.00
2022-11-19T11:42:07.669Z,1136.00
2022-11-19T11:43:00.100Z,1132.00
2022-11-19T11:43:59.098Z,1156.00
2022-11-19T11:44:59.695Z,1156.00
2022-11-19T11:45:59.074Z,1148.00
2022-11-19T11:46:59.075Z,1144.00
2022-11-19T11:47:59.066Z,1108.00
2022-11-19T11:49:04.811Z,1044.00
2022-11-19T11:50:00.023Z,972.00
2022-11-19T11:50:59.010Z,904.00
2022-11-19T11:51:59.013Z,828.00
2022-11-19T11:52:59.001Z,804.00
2022-11-19T11:53:59.000Z,840.00
2022-11-19T11:54:58.972Z,888.00
2022-11-19T11:55:58.953Z,916.00
2022-11-19T11:56:58.939Z,960.00
2022-11-19T11:57:58.947Z,984.00
2022-11-19T11:58:58.937Z,1000.00
2022-11-19T11:59:58.941Z,972.00
2022-11-19T12:00:58.906Z,996.00
2022-11-19T12:01:58.968Z,1020.00
2022-11-19T12:02:58.871Z,1052.00
2022-11-19T12:03:58.889Z,1056.00
2022-11-19T12:04:58.847Z,1104.00
2022-11-19T12:05:58.843Z,1108.00
2022-11-19T12:06:58.869Z,1104.00
2022-11-19T12:07:58.816Z,1088.00
2022-11-19T12:08:58.831Z,1008.00
2022-11-19T12:09:58.818Z,980.00
2022-11-19T12:10:58.815Z,1016.00
2022-11-19T12:11:58.774Z,1044.00
2022-11-19T12:12:58.756Z,1140.00
2022-11-19T12:13:58.776Z,1208.00
2022-11-19T12:14:58.748Z,1236.00
2022-11-19T12:15:58.731Z,1208.00
2022-11-19T12:16:58.724Z,1192.00
2022-11-19T12:17:58.720Z,1212.00
2022-11-19T12:18:58.705Z,1212.00
2022-11-19T12:19:58.697Z,1204.00
2022-11-19T12:20:58.679Z,1168.00
2022-11-19T12:21:58.660Z,1152.00
2022-11-19T12:22:58.646Z,1148.00
2022-11-19T12:23:58.650Z,1088.00
2022-11-19T12:24:58.694Z,1052.00
2022-11-19T12:25:58.744Z,1048.00
2022-11-19T12:26:58.606Z,1084.00
2022-11-19T12:27:58.598Z,1144.00
2022-11-19T12:28:58.576Z,1160.00
2022-11-19T12:29:58.589Z,1160.00
2022-11-19T12:30:58.605Z,1180.00
2022-11-19T12:31:58.546Z,1152.00
2022-11-19T12:32:58.537Z,1096.00
2022-11-19T12:33:58.529Z,1040.00
2022-11-19T12:34:58.549Z,1024.00
2022-11-19T12:35:58.512Z,1008.00
2022-11-19T12:36:58.491Z,1004.00
2022-11-19T12:37:58.473Z,1016.00
2022-11-19T12:38:58.475Z,1020.00
2022-11-19T12:39:58.462Z,1016.00
2022-11-19T12:40:58.452Z,1024.00
2022-11-19T12:41:58.452Z,1016.00
2022-11-19T12:42:58.417Z,1012.00
2022-11-19T12:43:58.411Z,1008.00
2022-11-19T12:44:58.394Z,1000.00
2022-11-19T12:45:58.470Z,988.00
2022-11-19T12:46:58.370Z,976.00
2022-11-19T12:47:58.376Z,980.00
2022-11-19T12:48:58.356Z,992.00
2022-11-19T12:49:58.349Z,988.00
2022-11-19T12:50:58.347Z,956.00
2022-11-19T12:51:58.324Z,940.00
2022-11-19T12:52:58.305Z,920.00
2022-11-19T12:53:58.310Z,876.00
2022-11-19T12:54:58.288Z,828.00
2022-11-19T12:55:58.315Z,800.00
2022-11-19T12:56:58.260Z,788.00
2022-11-19T12:57:58.281Z,768.00
2022-11-19T12:58:58.247Z,760.00
2022-11-19T12:59:58.254Z,768.00
2022-11-19T13:00:58.315Z,824.00
2022-11-19T13:01:58.225Z,876.00
2022-11-19T13:02:58.199Z,896.00
2022-11-19T13:03:58.190Z,892.00
2022-11-19T13:04:58.175Z,844.00
2022-11-19T13:05:58.184Z,796.00
2022-11-19T13:06:58.193Z,772.00
2022-11-19T13:07:58.138Z,760.00
2022-11-19T13:08:58.123Z,756.00
2022-11-19T13:09:58.123Z,760.00
2022-11-19T13:10:58.110Z,768.00
2022-11-19T13:11:58.147Z,792.00
2022-11-19T13:12:58.100Z,836.00
2022-11-19T13:13:58.097Z,872.00
2022-11-19T13:14:58.075Z,892.00
2022-11-19T13:15:58.049Z,892.00
2022-11-19T13:16:58.044Z,892.00
2022-11-19T13:17:58.060Z,872.00
2022-11-19T13:18:58.018Z,852.00
2022-11-19T13:19:58.006Z,840.00
2022-11-19T13:20:57.996Z,844.00
2022-11-19T13:21:57.984Z,828.00
2022-11-19T13:22:58.084Z,804.00
2022-11-19T13:23:57.979Z,784.00
2022-11-19T13:24:57.946Z,772.00
2022-11-19T13:25:57.944Z,764.00
2022-11-19T13:26:57.921Z,768.00
2022-11-19T13:27:57.947Z,760.00
2022-11-19T13:28:57.908Z,740.00
2022-11-19T13:29:57.930Z,688.00
2022-11-19T13:30:57.884Z,668.00
2022-11-19T13:31:57.879Z,648.00
2022-11-19T13:32:57.872Z,644.00
2022-11-19T13:33:57.841Z,656.00
2022-11-19T13:34:57.848Z,664.00
2022-11-19T13:35:57.836Z,656.00
2022-11-19T13:36:57.817Z,624.00
2022-11-19T13:37:58.882Z,596.00
2022-11-19T13:38:57.784Z,572.00
2022-11-19T13:39:57.790Z,552.00
2022-11-19T13:40:57.766Z,528.00
2022-11-19T13:41:57.766Z,508.00
2022-11-19T13:43:24.857Z,496.00
2022-11-19T13:43:58.745Z,492.00
2022-11-19T13:44:57.718Z,492.00
2022-11-19T13:45:57.843Z,484.00
2022-11-19T13:46:57.701Z,496.00
2022-11-19T13:47:58.365Z,524.00
2022-11-19T13:48:57.710Z,572.00
2022-11-19T13:49:57.677Z,596.00
2022-11-19T13:50:57.661Z,620.00
2022-11-19T13:51:57.656Z,628.00
2022-11-19T13:52:57.626Z,608.00
2022-11-19T13:54:02.625Z,592.00
2022-11-19T13:54:58.603Z,576.00
2022-11-19T13:55:57.625Z,568.00
2022-11-19T13:56:57.598Z,552.00
2022-11-19T13:57:57.574Z,528.00
2022-11-19T13:58:57.571Z,504.00
2022-11-19T13:59:57.587Z,472.00
2022-11-19T14:00:57.581Z,420.00
2022-11-19T14:01:57.769Z,384.00
2022-11-19T14:02:57.521Z,372.00
2022-11-19T14:03:57.523Z,372.00
2022-11-19T14:04:57.493Z,372.00
2022-11-19T14:05:57.503Z,368.00
2022-11-19T14:06:57.526Z,372.00
2022-11-19T14:07:57.467Z,372.00
2022-11-19T14:08:57.467Z,380.00
2022-11-19T14:09:57.437Z,396.00
2022-11-19T14:10:57.430Z,412.00
2022-11-19T14:11:57.438Z,428.00
2022-11-19T14:12:57.408Z,440.00
2022-11-19T14:13:57.407Z,440.00
2022-11-19T14:14:57.381Z,432.00
2022-11-19T14:15:57.376Z,428.00
2022-11-19T14:16:57.367Z,412.00
2022-11-19T14:17:57.414Z,400.00
2022-11-19T14:18:57.343Z,400.00
2022-11-19T14:19:57.336Z,400.00
2022-11-19T14:20:57.321Z,396.00
2022-11-19T14:21:57.301Z,396.00
2022-11-19T14:22:57.294Z,384.00
2022-11-19T14:23:57.313Z,368.00
2022-11-19T14:24:57.297Z,344.00
2022-11-19T14:25:57.268Z,320.00
2022-11-19T14:26:57.243Z,300.00
2022-11-19T14:27:57.240Z,288.00
2022-11-19T14:28:57.228Z,276.00
2022-11-19T14:29:57.248Z,264.00
2022-11-19T14:30:57.199Z,264.00
2022-11-19T14:31:57.200Z,256.00
2022-11-19T14:32:57.182Z,244.00
2022-11-19T14:33:57.192Z,240.00
2022-11-19T14:34:57.166Z,236.00
2022-11-19T14:35:57.148Z,236.00
2022-11-19T14:36:57.129Z,236.00
2022-11-19T14:37:57.120Z,236.00
2022-11-19T14:38:57.116Z,236.00
2022-11-19T14:39:57.161Z,236.00
2022-11-19T14:40:57.082Z,240.00
2022-11-19T14:41:57.085Z,248.00
2022-11-19T14:42:57.071Z,248.00
2022-11-19T14:43:57.057Z,244.00
2022-11-19T14:44:57.242Z,236.00
2022-11-19T14:45:57.036Z,232.00
2022-11-19T14:46:57.024Z,220.00
2022-11-19T14:47:57.014Z,208.00
2022-11-19T14:48:57.044Z,196.00
2022-11-19T14:49:57.018Z,188.00
2022-11-19T14:50:56.977Z,184.00
2022-11-19T14:51:56.970Z,180.00
2022-11-19T14:52:56.952Z,176.00
2022-11-19T14:53:56.947Z,176.00
2022-11-19T14:54:56.956Z,168.00
2022-11-19T14:55:56.922Z,160.00
2022-11-19T14:56:56.909Z,156.00
2022-11-19T14:57:56.893Z,152.00
2022-11-19T14:58:56.879Z,156.00
2022-11-19T14:59:56.887Z,160.00
2022-11-19T15:00:56.865Z,160.00
2022-11-19T15:01:56.847Z,160.00
2022-11-19T15:02:56.832Z,152.00
2022-11-19T15:03:56.872Z,152.00
2022-11-19T15:04:56.836Z,148.00
2022-11-19T15:05:56.829Z,140.00
2022-11-19T15:06:56.832Z,140.00
2022-11-19T15:07:56.783Z,140.00
2022-11-19T15:08:56.767Z,140.00
2022-11-19T15:09:56.780Z,140.00
2022-11-19T15:10:56.753Z,136.00
2022-11-19T15:11:56.745Z,132.00
2022-11-19T15:12:56.733Z,128.00
2022-11-19T15:13:56.721Z,120.00
2022-11-19T15:14:56.738Z,116.00
2022-11-19T15:15:56.695Z,112.00
2022-11-19T15:16:56.681Z,104.00
2022-11-19T15:18:00.665Z,100.00
2022-11-19T15:18:57.670Z,96.00
